Elkhart, Kansas
Current Conditions -  °F | °C
As of 6:53 AM on Tuesday 21 Oct 2014 (Local Time) from KGUY Reporting Station
Haze Haze  
Wind Chill: 48°   Ceiling: Unl
Heat Index: 48°   Visibility: 4mi
Dew Point: 47°   Wind: 3mph
Humidity: 96%   Direction: 240°WSW
Pressure: 30.07"   Gusts: NA
Location:  37.01°N, 101.89°W
Report Text: KGUY 211153Z AUTO 24003KT 4SM BR CLR 09/08 A3007 RMK AO2 SLP156 T00890083 10139 20083 51002
Loading
Personal Weather Stations






























Interactive Weather Map
Tropical Storm Tracking
New forecast layout! Learn more

10-Day Weather Forecast

Advertisements
Track Severe Weather on mobile